Terminal Aerodrome Forecast
Issued by NWS

Home | Current Version | Previous Version | Text Only | Print | Product List | Glossary On
Versions: 1 2 3 4 5 6 7 8 9 10 11 12
647
FTUS46 KSGX 192336
TAFPSP
TAF
KPSP 192336Z 2000/2024 31015G25KT P6SM SKC
     FM200800 31006KT P6SM SKC
     FM201900 32012KT P6SM SKC
     FM202200 32015G25KT P6SM SKC=

USA.gov is the U.S. government's official web portal to all federal, state and local government web resources and services.